Terminal Aerodrome Forecast
Issued by NWS Wilmington, OH

Current Version | Previous Version | Graphics & Text | Print | Product List | Glossary On
Versions: 1 2 3 4 5 6 7 8 9 10 11 12 13 14 15 16 17 18 19 20 21 22 23 24 25 26
000
FTUS41 KILN 231100
TAFCVG
TAF
KCVG 231136Z 2312/2418 26008KT P6SM VCTS OVC050CB
      TEMPO 2312/2314 33010G18KT 5SM -TSRA BR OVC040CB
     FM231700 29010KT 5SM -SHRA BR VCTS OVC045CB
     FM232100 32010KT P6SM BKN060
     FM240000 01008KT P6SM BKN100
     FM241100 02010KT P6SM SCT100=

USA.gov is the U.S. government's official web portal to all federal, state and local government web resources and services.